sensor_id;sensor_type;location;lat;lon;timestamp;temperature;humidity
50556;DHT22;36508;52.512;13.450;2022-10-04T00:01:18;13.60;99.90
50556;DHT22;36508;52.512;13.450;2022-10-04T00:03:47;13.60;99.90
50556;DHT22;36508;52.512;13.450;2022-10-04T00:06:22;13.70;99.90
50556;DHT22;36508;52.512;13.450;2022-10-04T00:08:55;13.70;99.90
50556;DHT22;36508;52.512;13.450;2022-10-04T00:11:28;13.60;99.90
50556;DHT22;36508;52.512;13.450;2022-10-04T00:14:00;13.60;99.90
50556;DHT22;36508;52.512;13.450;2022-10-04T00:16:37;13.60;99.90
50556;DHT22;36508;52.512;13.450;2022-10-04T00:19:25;13.50;99.90
50556;DHT22;36508;52.512;13.450;2022-10-04T00:29:33;13.70;99.90
50556;DHT22;36508;52.512;13.450;2022-10-04T00:34:51;13.50;99.90
50556;DHT22;36508;52.512;13.450;2022-10-04T00:37:20;13.50;99.90
50556;DHT22;36508;52.512;13.450;2022-10-04T00:40:00;13.50;99.90
50556;DHT22;36508;52.512;13.450;2022-10-04T00:42:45;13.50;99.90
50556;DHT22;36508;52.512;13.450;2022-10-04T00:45:23;13.50;99.90
50556;DHT22;36508;52.512;13.450;2022-10-04T00:50:38;13.40;99.90
50556;DHT22;36508;52.512;13.450;2022-10-04T00:53:36;13.40;99.90
50556;DHT22;36508;52.512;13.450;2022-10-04T00:56:11;13.40;99.90
50556;DHT22;36508;52.512;13.450;2022-10-04T00:58:59;13.40;99.90
50556;DHT22;36508;52.512;13.450;2022-10-04T01:01:29;13.50;99.90
50556;DHT22;36508;52.512;13.450;2022-10-04T01:03:56;13.40;99.90
50556;DHT22;36508;52.512;13.450;2022-10-04T01:06:24;13.40;99.90
50556;DHT22;36508;52.512;13.450;2022-10-04T01:08:53;13.40;99.90
50556;DHT22;36508;52.512;13.450;2022-10-04T01:11:28;13.40;99.90
50556;DHT22;36508;52.512;13.450;2022-10-04T01:14:05;13.40;99.90
50556;DHT22;36508;52.512;13.450;2022-10-04T01:16:34;13.30;99.90
50556;DHT22;36508;52.512;13.450;2022-10-04T01:19:28;13.40;99.90
50556;DHT22;36508;52.512;13.450;2022-10-04T01:24:40;13.30;99.90
50556;DHT22;36508;52.512;13.450;2022-10-04T01:27:36;13.30;99.90
50556;DHT22;36508;52.512;13.450;2022-10-04T01:30:12;13.20;99.90
50556;DHT22;36508;52.512;13.450;2022-10-04T01:32:38;13.20;99.90
50556;DHT22;36508;52.512;13.450;2022-10-04T01:35:07;13.10;99.90
50556;DHT22;36508;52.512;13.450;2022-10-04T01:37:33;13.10;99.90
50556;DHT22;36508;52.512;13.450;2022-10-04T01:39:59;13.10;99.90
50556;DHT22;36508;52.512;13.450;2022-10-04T01:42:31;13.20;99.90
50556;DHT22;36508;52.512;13.450;2022-10-04T01:45:16;13.10;99.90
50556;DHT22;36508;52.512;13.450;2022-10-04T01:47:51;13.20;99.90
50556;DHT22;36508;52.512;13.450;2022-10-04T01:50:23;13.20;99.90
50556;DHT22;36508;52.512;13.450;2022-10-04T01:52:55;13.20;99.90
50556;DHT22;36508;52.512;13.450;2022-10-04T01:55:31;13.20;99.90
50556;DHT22;36508;52.512;13.450;2022-10-04T01:58:03;13.20;99.90
50556;DHT22;36508;52.512;13.450;2022-10-04T02:00:35;13.20;99.90
50556;DHT22;36508;52.512;13.450;2022-10-04T02:03:10;13.20;99.90
50556;DHT22;36508;52.512;13.450;2022-10-04T02:05:43;13.20;99.90
50556;DHT22;36508;52.512;13.450;2022-10-04T02:08:14;13.10;99.90
50556;DHT22;36508;52.512;13.450;2022-10-04T02:10:41;13.10;99.90
50556;DHT22;36508;52.512;13.450;2022-10-04T02:13:13;13.10;99.90
50556;DHT22;36508;52.512;13.450;2022-10-04T02:15:42;13.20;99.90
50556;DHT22;36508;52.512;13.450;2022-10-04T02:18:11;13.10;99.90
50556;DHT22;36508;52.512;13.450;2022-10-04T02:20:39;13.00;99.90
50556;DHT22;36508;52.512;13.450;2022-10-04T02:23:08;13.00;99.90
50556;DHT22;36508;52.512;13.450;2022-10-04T02:25:38;13.00;99.90
50556;DHT22;36508;52.512;13.450;2022-10-04T02:28:08;13.00;99.90
50556;DHT22;36508;52.512;13.450;2022-10-04T02:30:37;13.00;99.90
50556;DHT22;36508;52.512;13.450;2022-10-04T02:33:03;13.00;99.90
50556;DHT22;36508;52.512;13.450;2022-10-04T02:35:35;13.00;99.90
50556;DHT22;36508;52.512;13.450;2022-10-04T02:38:22;12.90;99.90
50556;DHT22;36508;52.512;13.450;2022-10-04T02:49:33;12.70;99.90
50556;DHT22;36508;52.512;13.450;2022-10-04T02:52:04;12.70;99.90
50556;DHT22;36508;52.512;13.450;2022-10-04T02:54:56;12.80;99.90
50556;DHT22;36508;52.512;13.450;2022-10-04T02:57:25;12.70;99.90
50556;DHT22;36508;52.512;13.450;2022-10-04T03:00:22;12.80;99.90
50556;DHT22;36508;52.512;13.450;2022-10-04T03:05:37;12.70;99.90
50556;DHT22;36508;52.512;13.450;2022-10-04T03:08:04;12.70;99.90
50556;DHT22;36508;52.512;13.450;2022-10-04T03:10:30;12.70;99.90
50556;DHT22;36508;52.512;13.450;2022-10-04T03:12:56;12.70;99.90
50556;DHT22;36508;52.512;13.450;2022-10-04T03:15:22;12.50;99.90
50556;DHT22;36508;52.512;13.450;2022-10-04T03:17:48;12.60;99.90
50556;DHT22;36508;52.512;13.450;2022-10-04T03:20:14;12.60;99.90
50556;DHT22;36508;52.512;13.450;2022-10-04T03:22:48;12.60;99.90
50556;DHT22;36508;52.512;13.450;2022-10-04T03:25:19;12.50;99.90
50556;DHT22;36508;52.512;13.450;2022-10-04T03:27:46;12.50;99.90
50556;DHT22;36508;52.512;13.450;2022-10-04T03:30:16;12.50;99.90
50556;DHT22;36508;52.512;13.450;2022-10-04T03:32:46;12.50;99.90
50556;DHT22;36508;52.512;13.450;2022-10-04T03:35:35;12.40;99.90
50556;DHT22;36508;52.512;13.450;2022-10-04T03:38:06;12.40;99.90
50556;DHT22;36508;52.512;13.450;2022-10-04T03:40:34;12.40;99.90
50556;DHT22;36508;52.512;13.450;2022-10-04T03:43:03;12.40;99.90
50556;DHT22;36508;52.512;13.450;2022-10-04T03:45:31;12.40;99.90
50556;DHT22;36508;52.512;13.450;2022-10-04T03:48:04;12.40;99.90
50556;DHT22;36508;52.512;13.450;2022-10-04T03:50:34;12.40;99.90
50556;DHT22;36508;52.512;13.450;2022-10-04T03:53:16;12.30;99.90
50556;DHT22;36508;52.512;13.450;2022-10-04T03:55:43;12.30;99.90
50556;DHT22;36508;52.512;13.450;2022-10-04T03:58:12;12.30;99.90
50556;DHT22;36508;52.512;13.450;2022-10-04T04:01:09;12.30;99.90
50556;DHT22;36508;52.512;13.450;2022-10-04T04:03:56;12.30;99.90
50556;DHT22;36508;52.512;13.450;2022-10-04T04:06:24;12.30;99.90
50556;DHT22;36508;52.512;13.450;2022-10-04T04:08:53;12.20;99.90
50556;DHT22;36508;52.512;13.450;2022-10-04T04:11:23;12.20;99.90
50556;DHT22;36508;52.512;13.450;2022-10-04T04:14:07;12.30;99.90
50556;DHT22;36508;52.512;13.450;2022-10-04T04:16:36;12.30;99.90
50556;DHT22;36508;52.512;13.450;2022-10-04T04:19:08;12.20;99.90
50556;DHT22;36508;52.512;13.450;2022-10-04T04:21:36;12.20;99.90
50556;DHT22;36508;52.512;13.450;2022-10-04T04:24:12;12.20;99.90
50556;DHT22;36508;52.512;13.450;2022-10-04T04:26:47;12.20;99.90
50556;DHT22;36508;52.512;13.450;2022-10-04T04:31:57;12.10;99.90
50556;DHT22;36508;52.512;13.450;2022-10-04T04:34:29;12.10;99.90
50556;DHT22;36508;52.512;13.450;2022-10-04T04:36:58;12.10;99.90
50556;DHT22;36508;52.512;13.450;2022-10-04T04:39:25;12.00;99.90
50556;DHT22;36508;52.512;13.450;2022-10-04T04:42:31;12.00;99.90
50556;DHT22;36508;52.512;13.450;2022-10-04T04:45:12;12.00;99.90
50556;DHT22;36508;52.512;13.450;2022-10-04T04:47:45;12.00;99.90
50556;DHT22;36508;52.512;13.450;2022-10-04T04:50:18;12.00;99.90
50556;DHT22;36508;52.512;13.450;2022-10-04T04:52:51;11.90;99.90
50556;DHT22;36508;52.512;13.450;2022-10-04T04:55:23;12.00;99.90
50556;DHT22;36508;52.512;13.450;2022-10-04T04:57:52;12.00;99.90
50556;DHT22;36508;52.512;13.450;2022-10-04T05:00:23;12.00;99.90
50556;DHT22;36508;52.512;13.450;2022-10-04T05:02:55;12.00;99.90
50556;DHT22;36508;52.512;13.450;2022-10-04T05:05:25;12.00;99.90
50556;DHT22;36508;52.512;13.450;2022-10-04T05:08:27;11.90;99.90
50556;DHT22;36508;52.512;13.450;2022-10-04T05:11:03;11.90;99.90
50556;DHT22;36508;52.512;13.450;2022-10-04T05:13:52;11.90;99.90
50556;DHT22;36508;52.512;13.450;2022-10-04T05:16:25;11.80;99.90
50556;DHT22;36508;52.512;13.450;2022-10-04T05:19:01;11.90;99.90
50556;DHT22;36508;52.512;13.450;2022-10-04T05:21:29;11.90;99.90
50556;DHT22;36508;52.512;13.450;2022-10-04T05:24:08;11.90;99.90
50556;DHT22;36508;52.512;13.450;2022-10-04T05:26:38;11.90;99.90
50556;DHT22;36508;52.512;13.450;2022-10-04T05:29:17;11.90;99.90
50556;DHT22;36508;52.512;13.450;2022-10-04T05:34:48;11.90;99.90
50556;DHT22;36508;52.512;13.450;2022-10-04T05:42:44;12.10;99.90
50556;DHT22;36508;52.512;13.450;2022-10-04T05:45:25;12.10;99.90
50556;DHT22;36508;52.512;13.450;2022-10-04T05:47:56;12.10;99.90
50556;DHT22;36508;52.512;13.450;2022-10-04T05:50:35;12.20;99.90
50556;DHT22;36508;52.512;13.450;2022-10-04T05:53:31;12.30;99.90
50556;DHT22;36508;52.512;13.450;2022-10-04T06:05:17;12.50;99.90
50556;DHT22;36508;52.512;13.450;2022-10-04T06:07:57;12.60;99.90
50556;DHT22;36508;52.512;13.450;2022-10-04T06:16:25;12.60;99.90
50556;DHT22;36508;52.512;13.450;2022-10-04T06:19:07;12.70;99.90
50556;DHT22;36508;52.512;13.450;2022-10-04T06:22:01;12.80;99.90
50556;DHT22;36508;52.512;13.450;2022-10-04T06:24:34;12.80;99.90
50556;DHT22;36508;52.512;13.450;2022-10-04T06:30:05;12.90;99.90
50556;DHT22;36508;52.512;13.450;2022-10-04T06:32:56;13.00;99.90
50556;DHT22;36508;52.512;13.450;2022-10-04T06:38:39;13.00;99.90
50556;DHT22;36508;52.512;13.450;2022-10-04T06:44:33;13.10;99.90
50556;DHT22;36508;52.512;13.450;2022-10-04T06:47:57;13.10;99.90
50556;DHT22;36508;52.512;13.450;2022-10-04T06:50:17;13.20;99.90
50556;DHT22;36508;52.512;13.450;2022-10-04T06:53:13;13.30;99.90
50556;DHT22;36508;52.512;13.450;2022-10-04T06:59:05;13.10;99.90
50556;DHT22;36508;52.512;13.450;2022-10-04T07:01:55;13.00;99.90
50556;DHT22;36508;52.512;13.450;2022-10-04T07:04:45;13.00;99.90
50556;DHT22;36508;52.512;13.450;2022-10-04T07:07:24;12.90;99.90
50556;DHT22;36508;52.512;13.450;2022-10-04T07:12:49;13.00;99.90
50556;DHT22;36508;52.512;13.450;2022-10-04T07:15:30;13.00;99.90
50556;DHT22;36508;52.512;13.450;2022-10-04T07:18:04;13.20;99.90
50556;DHT22;36508;52.512;13.450;2022-10-04T07:20:34;13.20;99.90
50556;DHT22;36508;52.512;13.450;2022-10-04T07:23:22;13.20;99.90
50556;DHT22;36508;52.512;13.450;2022-10-04T07:25:52;13.20;99.90
50556;DHT22;36508;52.512;13.450;2022-10-04T07:28:26;13.30;99.90
50556;DHT22;36508;52.512;13.450;2022-10-04T07:31:26;13.40;99.90
50556;DHT22;36508;52.512;13.450;2022-10-04T07:34:09;13.50;99.90
50556;DHT22;36508;52.512;13.450;2022-10-04T07:36:47;13.60;99.90
50556;DHT22;36508;52.512;13.450;2022-10-04T07:39:24;13.50;99.90
50556;DHT22;36508;52.512;13.450;2022-10-04T07:41:59;13.40;99.90
50556;DHT22;36508;52.512;13.450;2022-10-04T07:44:34;13.50;99.90
50556;DHT22;36508;52.512;13.450;2022-10-04T07:47:21;13.50;99.90
50556;DHT22;36508;52.512;13.450;2022-10-04T07:49:48;13.60;99.90
50556;DHT22;36508;52.512;13.450;2022-10-04T07:55:22;13.50;99.90
50556;DHT22;36508;52.512;13.450;2022-10-04T07:57:53;13.50;99.90
50556;DHT22;36508;52.512;13.450;2022-10-04T08:00:45;13.50;99.90
50556;DHT22;36508;52.512;13.450;2022-10-04T08:03:34;13.60;99.90
50556;DHT22;36508;52.512;13.450;2022-10-04T08:14:38;13.50;99.90
50556;DHT22;36508;52.512;13.450;2022-10-04T08:17:21;13.50;99.90
50556;DHT22;36508;52.512;13.450;2022-10-04T08:20:16;13.50;99.90
50556;DHT22;36508;52.512;13.450;2022-10-04T08:25:44;13.60;99.90
50556;DHT22;36508;52.512;13.450;2022-10-04T08:28:34;13.60;99.90
50556;DHT22;36508;52.512;13.450;2022-10-04T08:37:00;14.40;99.90
50556;DHT22;36508;52.512;13.450;2022-10-04T08:39:47;14.50;99.90
50556;DHT22;36508;52.512;13.450;2022-10-04T08:45:31;14.30;99.90
50556;DHT22;36508;52.512;13.450;2022-10-04T08:48:28;14.20;99.90
50556;DHT22;36508;52.512;13.450;2022-10-04T08:57:27;14.40;99.90
50556;DHT22;36508;52.512;13.450;2022-10-04T09:02:55;14.60;99.90
50556;DHT22;36508;52.512;13.450;2022-10-04T09:16:45;15.30;99.90
50556;DHT22;36508;52.512;13.450;2022-10-04T09:31:00;15.50;99.90
50556;DHT22;36508;52.512;13.450;2022-10-04T09:33:54;15.80;99.90
50556;DHT22;36508;52.512;13.450;2022-10-04T09:48:12;15.40;99.90
50556;DHT22;36508;52.512;13.450;2022-10-04T09:51:06;15.70;99.90
50556;DHT22;36508;52.512;13.450;2022-10-04T09:56:44;16.30;99.90
50556;DHT22;36508;52.512;13.450;2022-10-04T10:05:22;16.30;99.90
50556;DHT22;36508;52.512;13.450;2022-10-04T10:22:46;20.80;99.90
50556;DHT22;36508;52.512;13.450;2022-10-04T10:37:31;18.30;99.90
50556;DHT22;36508;52.512;13.450;2022-10-04T10:40:35;18.90;99.90
50556;DHT22;36508;52.512;13.450;2022-10-04T10:43:16;19.60;99.90
50556;DHT22;36508;52.512;13.450;2022-10-04T10:51:16;18.80;99.90
50556;DHT22;36508;52.512;13.450;2022-10-04T11:02:56;17.80;99.90
50556;DHT22;36508;52.512;13.450;2022-10-04T11:17:26;17.10;99.90
50556;DHT22;36508;52.512;13.450;2022-10-04T11:42:20;17.40;99.90
50556;DHT22;36508;52.512;13.450;2022-10-04T11:48:23;18.00;99.90
50556;DHT22;36508;52.512;13.450;2022-10-04T11:59:26;17.40;99.90
50556;DHT22;36508;52.512;13.450;2022-10-04T12:07:47;17.90;99.90
50556;DHT22;36508;52.512;13.450;2022-10-04T12:10:41;18.00;99.90
50556;DHT22;36508;52.512;13.450;2022-10-04T12:19:12;17.10;99.90
50556;DHT22;36508;52.512;13.450;2022-10-04T12:25:18;17.10;99.90
50556;DHT22;36508;52.512;13.450;2022-10-04T12:27:55;17.40;99.90
50556;DHT22;36508;52.512;13.450;2022-10-04T12:33:41;18.80;99.90
50556;DHT22;36508;52.512;13.450;2022-10-04T12:52:53;18.70;99.90
50556;DHT22;36508;52.512;13.450;2022-10-04T12:58:41;19.00;99.90
50556;DHT22;36508;52.512;13.450;2022-10-04T13:04:28;18.90;99.90
50556;DHT22;36508;52.512;13.450;2022-10-04T13:07:06;18.80;99.90
50556;DHT22;36508;52.512;13.450;2022-10-04T13:15:53;18.30;99.90
50556;DHT22;36508;52.512;13.450;2022-10-04T13:21:40;18.40;99.90
50556;DHT22;36508;52.512;13.450;2022-10-04T13:27:01;18.20;99.90
50556;DHT22;36508;52.512;13.450;2022-10-04T13:29:46;18.20;99.90
50556;DHT22;36508;52.512;13.450;2022-10-04T13:32:24;18.50;99.90
50556;DHT22;36508;52.512;13.450;2022-10-04T13:34:57;18.30;99.90
50556;DHT22;36508;52.512;13.450;2022-10-04T13:37:34;18.20;99.90
50556;DHT22;36508;52.512;13.450;2022-10-04T13:40:21;18.20;99.90
50556;DHT22;36508;52.512;13.450;2022-10-04T13:46:01;18.80;99.90
50556;DHT22;36508;52.512;13.450;2022-10-04T13:51:27;19.10;99.90
50556;DHT22;36508;52.512;13.450;2022-10-04T13:54:14;19.50;99.90
50556;DHT22;36508;52.512;13.450;2022-10-04T13:59:46;19.10;99.90
50556;DHT22;36508;52.512;13.450;2022-10-04T14:13:42;20.20;99.90
50556;DHT22;36508;52.512;13.450;2022-10-04T14:19:18;20.20;99.90
50556;DHT22;36508;52.512;13.450;2022-10-04T14:25:00;20.00;99.90
50556;DHT22;36508;52.512;13.450;2022-10-04T14:33:03;20.60;99.90
50556;DHT22;36508;52.512;13.450;2022-10-04T14:41:16;19.60;99.90
50556;DHT22;36508;52.512;13.450;2022-10-04T14:47:01;18.90;99.90
50556;DHT22;36508;52.512;13.450;2022-10-04T14:49:42;19.10;99.90
50556;DHT22;36508;52.512;13.450;2022-10-04T14:52:27;19.30;99.90
50556;DHT22;36508;52.512;13.450;2022-10-04T14:55:06;19.00;99.90
50556;DHT22;36508;52.512;13.450;2022-10-04T15:04:09;18.90;99.90
50556;DHT22;36508;52.512;13.450;2022-10-04T15:06:48;19.00;99.90
50556;DHT22;36508;52.512;13.450;2022-10-04T15:20:49;18.40;99.90
50556;DHT22;36508;52.512;13.450;2022-10-04T15:23:41;18.40;99.90
50556;DHT22;36508;52.512;13.450;2022-10-04T15:37:01;17.90;99.90
50556;DHT22;36508;52.512;13.450;2022-10-04T15:42:33;17.80;99.90
50556;DHT22;36508;52.512;13.450;2022-10-04T15:50:31;17.60;99.90
50556;DHT22;36508;52.512;13.450;2022-10-04T15:53:15;17.60;99.90
50556;DHT22;36508;52.512;13.450;2022-10-04T16:01:46;17.40;99.90
50556;DHT22;36508;52.512;13.450;2022-10-04T16:04:28;17.30;99.90
50556;DHT22;36508;52.512;13.450;2022-10-04T16:07:27;17.30;99.90
50556;DHT22;36508;52.512;13.450;2022-10-04T16:10:16;17.30;99.90
50556;DHT22;36508;52.512;13.450;2022-10-04T16:15:30;17.20;99.90
50556;DHT22;36508;52.512;13.450;2022-10-04T16:23:38;17.10;99.90
50556;DHT22;36508;52.512;13.450;2022-10-04T16:29:30;16.90;99.90
50556;DHT22;36508;52.512;13.450;2022-10-04T16:32:19;16.90;99.90
50556;DHT22;36508;52.512;13.450;2022-10-04T16:34:50;16.80;99.90
50556;DHT22;36508;52.512;13.450;2022-10-04T16:37:29;16.70;99.90
50556;DHT22;36508;52.512;13.450;2022-10-04T16:42:49;16.60;99.90
50556;DHT22;36508;52.512;13.450;2022-10-04T16:47:58;16.60;99.90
50556;DHT22;36508;52.512;13.450;2022-10-04T16:56:28;16.50;99.90
50556;DHT22;36508;52.512;13.450;2022-10-04T16:59:01;16.50;99.90
50556;DHT22;36508;52.512;13.450;2022-10-04T17:12:35;16.30;99.90
50556;DHT22;36508;52.512;13.450;2022-10-04T17:23:21;16.10;99.90
50556;DHT22;36508;52.512;13.450;2022-10-04T17:28:33;16.10;99.90
50556;DHT22;36508;52.512;13.450;2022-10-04T17:36:37;16.00;99.90
50556;DHT22;36508;52.512;13.450;2022-10-04T17:39:27;16.00;99.90
50556;DHT22;36508;52.512;13.450;2022-10-04T17:47:38;15.90;99.90
50556;DHT22;36508;52.512;13.450;2022-10-04T17:50:39;15.90;99.90
50556;DHT22;36508;52.512;13.450;2022-10-04T17:53:28;15.80;99.90
50556;DHT22;36508;52.512;13.450;2022-10-04T17:56:26;15.80;99.90
50556;DHT22;36508;52.512;13.450;2022-10-04T17:58:55;15.70;99.90
50556;DHT22;36508;52.512;13.450;2022-10-04T18:01:35;15.60;99.90
50556;DHT22;36508;52.512;13.450;2022-10-04T18:04:23;15.60;99.90
50556;DHT22;36508;52.512;13.450;2022-10-04T18:09:46;15.50;99.90
50556;DHT22;36508;52.512;13.450;2022-10-04T18:17:41;15.50;99.90
50556;DHT22;36508;52.512;13.450;2022-10-04T18:20:30;15.50;99.90
50556;DHT22;36508;52.512;13.450;2022-10-04T18:23:21;15.40;99.90
50556;DHT22;36508;52.512;13.450;2022-10-04T18:25:51;15.30;99.90
50556;DHT22;36508;52.512;13.450;2022-10-04T18:28:20;15.40;99.90
50556;DHT22;36508;52.512;13.450;2022-10-04T18:30:50;15.30;99.90
50556;DHT22;36508;52.512;13.450;2022-10-04T18:33:29;15.30;99.90
50556;DHT22;36508;52.512;13.450;2022-10-04T18:36:13;15.30;99.90
50556;DHT22;36508;52.512;13.450;2022-10-04T18:39:04;15.20;99.90
50556;DHT22;36508;52.512;13.450;2022-10-04T18:41:28;15.20;99.90
50556;DHT22;36508;52.512;13.450;2022-10-04T18:44:16;15.20;99.90
50556;DHT22;36508;52.512;13.450;2022-10-04T18:46:45;15.20;99.90
50556;DHT22;36508;52.512;13.450;2022-10-04T18:49:23;15.10;99.90
50556;DHT22;36508;52.512;13.450;2022-10-04T18:52:03;15.10;99.90
50556;DHT22;36508;52.512;13.450;2022-10-04T18:57:35;15.00;99.90
50556;DHT22;36508;52.512;13.450;2022-10-04T19:00:20;15.00;99.90
50556;DHT22;36508;52.512;13.450;2022-10-04T19:06:15;15.00;99.90
50556;DHT22;36508;52.512;13.450;2022-10-04T19:08:51;15.00;99.90
50556;DHT22;36508;52.512;13.450;2022-10-04T19:11:32;14.90;99.90
50556;DHT22;36508;52.512;13.450;2022-10-04T19:20:16;14.80;99.90
50556;DHT22;36508;52.512;13.450;2022-10-04T19:22:59;14.70;99.90
50556;DHT22;36508;52.512;13.450;2022-10-04T19:25:44;14.70;99.90
50556;DHT22;36508;52.512;13.450;2022-10-04T19:28:24;14.60;99.90
50556;DHT22;36508;52.512;13.450;2022-10-04T19:31:05;14.60;99.90
50556;DHT22;36508;52.512;13.450;2022-10-04T19:33:42;14.50;99.90
50556;DHT22;36508;52.512;13.450;2022-10-04T19:37:18;14.50;99.90
50556;DHT22;36508;52.512;13.450;2022-10-04T19:42:11;14.50;99.90
50556;DHT22;36508;52.512;13.450;2022-10-04T19:45:13;14.50;99.90
50556;DHT22;36508;52.512;13.450;2022-10-04T19:47:49;14.60;99.90
50556;DHT22;36508;52.512;13.450;2022-10-04T19:50:23;14.50;99.90
50556;DHT22;36508;52.512;13.450;2022-10-04T19:52:58;14.40;99.90
50556;DHT22;36508;52.512;13.450;2022-10-04T19:55:41;14.40;99.90
50556;DHT22;36508;52.512;13.450;2022-10-04T20:00:51;14.40;99.90
50556;DHT22;36508;52.512;13.450;2022-10-04T20:03:17;14.40;99.90
50556;DHT22;36508;52.512;13.450;2022-10-04T20:05:47;14.50;99.90
50556;DHT22;36508;52.512;13.450;2022-10-04T20:08:15;14.40;99.90
50556;DHT22;36508;52.512;13.450;2022-10-04T20:10:42;14.40;99.90
50556;DHT22;36508;52.512;13.450;2022-10-04T20:13:20;14.40;99.90
50556;DHT22;36508;52.512;13.450;2022-10-04T20:15:50;14.30;99.90
50556;DHT22;36508;52.512;13.450;2022-10-04T20:29:07;14.00;99.90
50556;DHT22;36508;52.512;13.450;2022-10-04T20:34:29;14.20;99.90
50556;DHT22;36508;52.512;13.450;2022-10-04T20:36:56;14.20;99.90
50556;DHT22;36508;52.512;13.450;2022-10-04T20:39:54;14.10;99.90
50556;DHT22;36508;52.512;13.450;2022-10-04T20:42:37;14.10;99.90
50556;DHT22;36508;52.512;13.450;2022-10-04T20:47:44;13.90;99.90
50556;DHT22;36508;52.512;13.450;2022-10-04T20:53:33;13.90;99.90
50556;DHT22;36508;52.512;13.450;2022-10-04T20:58:38;13.80;99.90
50556;DHT22;36508;52.512;13.450;2022-10-04T21:07:08;13.80;99.90
50556;DHT22;36508;52.512;13.450;2022-10-04T21:09:38;13.80;99.90
50556;DHT22;36508;52.512;13.450;2022-10-04T21:12:05;13.90;99.90
50556;DHT22;36508;52.512;13.450;2022-10-04T21:14:33;13.90;99.90
50556;DHT22;36508;52.512;13.450;2022-10-04T21:17:00;13.90;99.90
50556;DHT22;36508;52.512;13.450;2022-10-04T21:22:02;13.70;99.90
50556;DHT22;36508;52.512;13.450;2022-10-04T21:27:11;13.60;99.90
50556;DHT22;36508;52.512;13.450;2022-10-04T21:29:49;13.60;99.90
50556;DHT22;36508;52.512;13.450;2022-10-04T21:32:14;13.50;99.90
50556;DHT22;36508;52.512;13.450;2022-10-04T21:34:40;13.50;99.90
50556;DHT22;36508;52.512;13.450;2022-10-04T21:37:05;13.50;99.90
50556;DHT22;36508;52.512;13.450;2022-10-04T21:39:31;13.50;99.90
50556;DHT22;36508;52.512;13.450;2022-10-04T21:41:58;13.40;99.90
50556;DHT22;36508;52.512;13.450;2022-10-04T21:44:23;13.40;99.90
50556;DHT22;36508;52.512;13.450;2022-10-04T21:46:49;13.40;99.90
50556;DHT22;36508;52.512;13.450;2022-10-04T21:49:15;13.30;99.90
50556;DHT22;36508;52.512;13.450;2022-10-04T21:51:40;13.40;99.90
50556;DHT22;36508;52.512;13.450;2022-10-04T21:54:06;13.30;99.90
50556;DHT22;36508;52.512;13.450;2022-10-04T21:56:32;13.30;99.90
50556;DHT22;36508;52.512;13.450;2022-10-04T21:58:57;13.30;99.90
50556;DHT22;36508;52.512;13.450;2022-10-04T22:01:23;13.30;99.90
50556;DHT22;36508;52.512;13.450;2022-10-04T22:03:49;13.20;99.90
50556;DHT22;36508;52.512;13.450;2022-10-04T22:06:15;13.30;99.90
50556;DHT22;36508;52.512;13.450;2022-10-04T22:08:41;13.20;99.90
50556;DHT22;36508;52.512;13.450;2022-10-04T22:11:08;13.30;99.90
50556;DHT22;36508;52.512;13.450;2022-10-04T22:13:34;13.30;99.90
50556;DHT22;36508;52.512;13.450;2022-10-04T22:15:59;13.30;99.90
50556;DHT22;36508;52.512;13.450;2022-10-04T22:18:27;13.10;99.90
50556;DHT22;36508;52.512;13.450;2022-10-04T22:20:53;13.10;99.90
50556;DHT22;36508;52.512;13.450;2022-10-04T22:23:23;13.10;99.90
50556;DHT22;36508;52.512;13.450;2022-10-04T22:25:49;13.10;99.90
50556;DHT22;36508;52.512;13.450;2022-10-04T22:28:20;13.10;99.90
50556;DHT22;36508;52.512;13.450;2022-10-04T22:30:46;13.10;99.90
50556;DHT22;36508;52.512;13.450;2022-10-04T22:33:34;13.00;99.90
50556;DHT22;36508;52.512;13.450;2022-10-04T22:36:32;13.00;99.90
50556;DHT22;36508;52.512;13.450;2022-10-04T22:41:35;13.00;99.90
50556;DHT22;36508;52.512;13.450;2022-10-04T22:46:51;13.10;99.90
50556;DHT22;36508;52.512;13.450;2022-10-04T22:49:24;13.10;99.90
50556;DHT22;36508;52.512;13.450;2022-10-04T22:51:53;13.00;99.90
50556;DHT22;36508;52.512;13.450;2022-10-04T22:54:26;13.00;99.90
50556;DHT22;36508;52.512;13.450;2022-10-04T22:56:52;13.10;99.90
50556;DHT22;36508;52.512;13.450;2022-10-04T22:59:19;13.00;99.90
50556;DHT22;36508;52.512;13.450;2022-10-04T23:01:47;13.00;99.90
50556;DHT22;36508;52.512;13.450;2022-10-04T23:06:45;12.90;99.90
50556;DHT22;36508;52.512;13.450;2022-10-04T23:09:11;12.90;99.90
50556;DHT22;36508;52.512;13.450;2022-10-04T23:11:36;12.90;99.90
50556;DHT22;36508;52.512;13.450;2022-10-04T23:14:02;13.00;99.90
50556;DHT22;36508;52.512;13.450;2022-10-04T23:16:28;12.90;99.90
50556;DHT22;36508;52.512;13.450;2022-10-04T23:19:18;12.90;99.90
50556;DHT22;36508;52.512;13.450;2022-10-04T23:21:47;12.80;99.90
50556;DHT22;36508;52.512;13.450;2022-10-04T23:24:25;12.70;99.90
50556;DHT22;36508;52.512;13.450;2022-10-04T23:26:56;12.80;99.90
50556;DHT22;36508;52.512;13.450;2022-10-04T23:29:28;12.80;99.90
50556;DHT22;36508;52.512;13.450;2022-10-04T23:31:56;12.80;99.90
50556;DHT22;36508;52.512;13.450;2022-10-04T23:34:29;12.70;99.90
50556;DHT22;36508;52.512;13.450;2022-10-04T23:36:57;12.60;99.90
50556;DHT22;36508;52.512;13.450;2022-10-04T23:39:33;12.60;99.90
50556;DHT22;36508;52.512;13.450;2022-10-04T23:42:00;12.60;99.90
50556;DHT22;36508;52.512;13.450;2022-10-04T23:44:33;12.50;99.90
50556;DHT22;36508;52.512;13.450;2022-10-04T23:46:59;12.60;99.90
50556;DHT22;36508;52.512;13.450;2022-10-04T23:49:25;12.60;99.90
50556;DHT22;36508;52.512;13.450;2022-10-04T23:51:57;12.60;99.90
50556;DHT22;36508;52.512;13.450;2022-10-04T23:54:24;12.60;99.90
50556;DHT22;36508;52.512;13.450;2022-10-04T23:56:51;12.60;99.90
50556;DHT22;36508;52.512;13.450;2022-10-04T23:59:19;12.50;99.90
